createdAt,value
2018-09-08T00:00:33.351Z,935.03
2018-09-08T00:01:33.307Z,935.05
2018-09-08T00:02:33.275Z,935.05
2018-09-08T00:03:33.207Z,935.06
2018-09-08T00:04:33.162Z,935.04
2018-09-08T00:05:33.114Z,935.07
2018-09-08T00:06:33.068Z,935.15
2018-09-08T00:07:33.019Z,935.13
2018-09-08T00:08:32.974Z,935.11
2018-09-08T00:09:32.926Z,935.13
2018-09-08T00:10:32.864Z,935.09
2018-09-08T00:11:32.831Z,935.11
2018-09-08T00:12:32.785Z,935.07
2018-09-08T00:13:32.738Z,935.10
2018-09-08T00:14:32.692Z,935.12
2018-09-08T00:15:32.642Z,935.15
2018-09-08T00:16:32.601Z,935.15
2018-09-08T00:17:32.559Z,935.13
2018-09-08T00:18:32.479Z,935.16
2018-09-08T00:19:32.456Z,935.19
2018-09-08T00:20:32.398Z,935.24
2018-09-08T00:21:32.360Z,935.22
2018-09-08T00:22:32.308Z,935.21
2018-09-08T00:23:32.263Z,935.21
2018-09-08T00:24:32.215Z,935.22
2018-09-08T00:25:32.171Z,935.19
2018-09-08T00:26:32.114Z,935.22
2018-09-08T00:27:32.062Z,935.25
2018-09-08T00:28:32.023Z,935.23
2018-09-08T00:29:31.975Z,935.25
2018-09-08T00:30:31.925Z,935.22
2018-09-08T00:31:31.881Z,935.29
2018-09-08T00:32:31.818Z,935.32
2018-09-08T00:33:31.794Z,935.32
2018-09-08T00:34:31.739Z,935.32
2018-09-08T00:35:31.688Z,935.29
2018-09-08T00:36:31.635Z,935.31
2018-09-08T00:37:31.594Z,935.29
2018-09-08T00:38:31.570Z,935.32
2018-09-08T00:39:31.493Z,935.30
2018-09-08T00:40:31.448Z,935.30
2018-09-08T00:41:31.403Z,935.26
2018-09-08T00:42:31.343Z,935.30
2018-09-08T00:43:31.298Z,935.33
2018-09-08T00:44:31.264Z,935.40
2018-09-08T00:45:31.213Z,935.34
2018-09-08T00:46:31.166Z,935.37
2018-09-08T00:47:31.099Z,935.36
2018-09-08T00:48:31.068Z,935.39
2018-09-08T00:49:31.021Z,935.35
2018-09-08T00:50:30.975Z,935.41
2018-09-08T00:51:30.923Z,935.41
2018-09-08T00:52:30.886Z,935.44
2018-09-08T00:53:30.831Z,935.43
2018-09-08T00:54:30.787Z,935.39
2018-09-08T00:55:30.738Z,935.45
2018-09-08T00:56:30.700Z,935.46
2018-09-08T00:57:30.625Z,935.42
2018-09-08T00:58:30.593Z,935.43
2018-09-08T00:59:30.552Z,935.41
2018-09-08T01:00:30.483Z,935.45
2018-09-08T01:01:30.459Z,935.42
2018-09-08T01:02:30.420Z,935.42
2018-09-08T01:03:30.343Z,935.51
2018-09-08T01:04:30.313Z,935.50
2018-09-08T01:05:30.260Z,935.50
2018-09-08T01:06:30.212Z,935.49
2018-09-08T01:07:30.152Z,935.47
2018-09-08T01:08:30.118Z,935.48
2018-09-08T01:09:30.055Z,935.46
2018-09-08T01:10:30.024Z,935.44
2018-09-08T01:11:29.967Z,935.45
2018-09-08T01:12:29.930Z,935.47
2018-09-08T01:13:29.876Z,935.46
2018-09-08T01:14:29.825Z,935.46
2018-09-08T01:15:29.823Z,935.45
2018-09-08T01:16:29.733Z,935.48
2018-09-08T01:17:29.705Z,935.48
2018-09-08T01:18:29.636Z,935.44
2018-09-08T01:19:29.593Z,935.48
2018-09-08T01:20:29.544Z,935.45
2018-09-08T01:21:29.508Z,935.44
2018-09-08T01:22:29.447Z,935.48
2018-09-08T01:23:29.388Z,935.52
2018-09-08T01:24:29.354Z,935.52
2018-09-08T01:25:29.308Z,935.55
2018-09-08T01:26:29.257Z,935.51
2018-09-08T01:27:29.212Z,935.47
2018-09-08T01:28:29.159Z,935.50
2018-09-08T01:29:29.126Z,935.46
2018-09-08T01:30:29.063Z,935.49
2018-09-08T01:31:29.004Z,935.43
2018-09-08T01:32:28.973Z,935.44
2018-09-08T01:33:28.920Z,935.44
2018-09-08T01:34:28.876Z,935.44
2018-09-08T01:35:28.827Z,935.39
2018-09-08T01:36:28.791Z,935.37
2018-09-08T01:37:28.736Z,935.41
2018-09-08T01:38:28.685Z,935.38
2018-09-08T01:39:28.642Z,935.39
2018-09-08T01:40:28.620Z,935.41
2018-09-08T01:41:28.537Z,935.41
2018-09-08T01:42:28.490Z,935.40
2018-09-08T01:43:28.448Z,935.40
2018-09-08T01:44:28.394Z,935.39
2018-09-08T01:45:28.336Z,935.39
2018-09-08T01:46:28.304Z,935.41
2018-09-08T01:47:28.258Z,935.38
2018-09-08T01:48:28.213Z,935.44
2018-09-08T01:49:28.162Z,935.44
2018-09-08T01:50:28.109Z,935.44
2018-09-08T01:51:28.092Z,935.42
2018-09-08T01:52:28.013Z,935.45
2018-09-08T01:53:28.007Z,935.46
2018-09-08T01:54:27.920Z,935.43
2018-09-08T01:55:27.875Z,935.43
2018-09-08T01:56:27.820Z,935.42
2018-09-08T01:57:27.781Z,935.45
2018-09-08T01:58:27.738Z,935.43
2018-09-08T01:59:27.686Z,935.41
2018-09-08T02:00:27.635Z,935.43
2018-09-08T02:01:27.583Z,935.43
2018-09-08T02:02:27.557Z,935.44
2018-09-08T02:03:27.488Z,935.50
2018-09-08T02:04:27.446Z,935.39
2018-09-08T02:05:27.408Z,935.41
2018-09-08T02:06:27.348Z,935.35
2018-09-08T02:07:27.304Z,935.37
2018-09-08T02:08:27.244Z,935.35
2018-09-08T02:09:27.207Z,935.32
2018-09-08T02:10:27.171Z,935.38
2018-09-08T02:11:27.111Z,935.33
2018-09-08T02:12:27.059Z,935.30
2018-09-08T02:13:27.013Z,935.26
2018-09-08T02:14:26.961Z,935.26
2018-09-08T02:15:26.914Z,935.18
2018-09-08T02:16:26.871Z,935.18
2018-09-08T02:17:26.826Z,935.15
2018-09-08T02:18:26.781Z,935.15
2018-09-08T02:19:26.734Z,935.15
2018-09-08T02:20:26.708Z,935.17
2018-09-08T02:21:26.634Z,935.16
2018-09-08T02:22:26.582Z,935.18
2018-09-08T02:23:26.543Z,935.16
2018-09-08T02:24:26.491Z,935.11
2018-09-08T02:25:26.529Z,935.16
2018-09-08T02:26:26.395Z,935.15
2018-09-08T02:27:26.346Z,935.14
2018-09-08T02:28:26.284Z,935.12
2018-09-08T02:29:26.267Z,935.16
2018-09-08T02:30:26.214Z,935.13
2018-09-08T02:31:26.170Z,935.13
2018-09-08T02:32:26.104Z,935.14
2018-09-08T02:33:26.060Z,935.15
2018-09-08T02:34:26.004Z,935.10
2018-09-08T02:35:25.967Z,935.10
2018-09-08T02:36:25.900Z,935.13
2018-09-08T02:37:25.855Z,935.11
2018-09-08T02:38:25.818Z,935.12
2018-09-08T02:39:25.771Z,935.07
2018-09-08T02:40:25.727Z,935.05
2018-09-08T02:41:25.679Z,935.03
2018-09-08T02:42:25.624Z,935.00
2018-09-08T02:43:25.579Z,934.99
2018-09-08T02:44:25.525Z,935.01
2018-09-08T02:45:25.483Z,935.04
2018-09-08T02:46:25.440Z,935.03
2018-09-08T02:47:25.383Z,935.00
2018-09-08T02:48:25.343Z,935.02
2018-09-08T02:49:25.292Z,934.99
2018-09-08T02:50:25.241Z,935.02
2018-09-08T02:51:25.178Z,935.03
2018-09-08T02:52:25.148Z,935.00
2018-09-08T02:53:25.093Z,934.97
2018-09-08T02:54:25.092Z,935.01
2018-09-08T02:55:25.002Z,935.00
2018-09-08T02:56:24.953Z,934.98
2018-09-08T02:57:24.906Z,934.99
2018-09-08T02:58:24.856Z,934.96
2018-09-08T02:59:24.816Z,934.94
2018-09-08T03:00:24.768Z,934.94
2018-09-08T03:01:24.711Z,934.92
2018-09-08T03:02:24.663Z,934.95
2018-09-08T03:03:24.622Z,934.93
2018-09-08T03:04:24.573Z,934.97
2018-09-08T03:05:24.526Z,934.92
2018-09-08T03:06:24.485Z,934.89
2018-09-08T03:07:24.437Z,934.89
2018-09-08T03:08:24.379Z,934.90
2018-09-08T03:09:24.325Z,934.88
2018-09-08T03:10:24.297Z,934.84
2018-09-08T03:11:24.235Z,934.83
2018-09-08T03:12:24.185Z,934.88
2018-09-08T03:13:24.133Z,934.87
2018-09-08T03:14:24.090Z,934.86
2018-09-08T03:15:24.053Z,934.88
2018-09-08T03:16:23.980Z,934.84
2018-09-08T03:17:23.958Z,934.83
2018-09-08T03:18:23.899Z,934.85
2018-09-08T03:19:23.851Z,934.85
2018-09-08T03:20:23.811Z,934.80
2018-09-08T03:21:23.759Z,934.81
2018-09-08T03:22:23.704Z,934.81
2018-09-08T03:23:23.673Z,934.74
2018-09-08T03:24:23.609Z,934.80
2018-09-08T03:25:23.555Z,934.73
2018-09-08T03:26:23.514Z,934.75
2018-09-08T03:27:23.466Z,934.74
2018-09-08T03:28:23.432Z,934.73
2018-09-08T03:29:23.367Z,934.71
2018-09-08T03:30:23.327Z,934.70
2018-09-08T03:31:23.264Z,934.72
2018-09-08T03:32:23.239Z,934.70
2018-09-08T03:33:23.177Z,934.68
2018-09-08T03:34:23.125Z,934.70
2018-09-08T03:35:23.088Z,934.66
2018-09-08T03:36:23.017Z,934.70
2018-09-08T03:37:22.996Z,934.69
2018-09-08T03:38:22.941Z,934.68
2018-09-08T03:39:22.899Z,934.65
2018-09-08T03:40:22.850Z,934.67
2018-09-08T03:41:22.800Z,934.65
2018-09-08T03:42:22.746Z,934.64
2018-09-08T03:43:22.694Z,934.58
2018-09-08T03:44:22.664Z,934.64
2018-09-08T03:45:22.612Z,934.59
2018-09-08T03:46:22.560Z,934.56
2018-09-08T03:47:22.516Z,934.55
2018-09-08T03:48:22.451Z,934.53
2018-09-08T03:49:22.399Z,934.57
2018-09-08T03:50:22.382Z,934.58
2018-09-08T03:51:22.322Z,934.55
2018-09-08T03:52:22.269Z,934.55
2018-09-08T03:53:22.234Z,934.51
2018-09-08T03:54:22.172Z,934.47
2018-09-08T03:55:22.124Z,934.50
2018-09-08T03:56:22.079Z,934.46
2018-09-08T03:57:22.030Z,934.46
2018-09-08T03:58:21.985Z,934.44
2018-09-08T03:59:21.934Z,934.40
2018-09-08T04:00:21.880Z,934.44
2018-09-08T04:01:21.837Z,934.40
2018-09-08T04:02:21.790Z,934.38
2018-09-08T04:03:21.742Z,934.38
2018-09-08T04:04:21.694Z,934.40
2018-09-08T04:05:21.652Z,934.35
2018-09-08T04:06:21.599Z,934.33
2018-09-08T04:07:21.550Z,934.32
2018-09-08T04:08:21.496Z,934.30
2018-09-08T04:09:21.454Z,934.27
2018-09-08T04:10:21.388Z,934.27
2018-09-08T04:11:21.508Z,934.24
2018-09-08T04:12:21.309Z,934.21
2018-09-08T04:13:21.263Z,934.20
2018-09-08T04:14:21.232Z,934.23
2018-09-08T04:15:21.177Z,934.22
2018-09-08T04:16:21.101Z,934.19
2018-09-08T04:17:21.065Z,934.19
2018-09-08T04:18:21.024Z,934.16
2018-09-08T04:19:20.973Z,934.17
2018-09-08T04:20:20.933Z,934.11
2018-09-08T04:21:20.877Z,934.17
2018-09-08T04:22:20.828Z,934.13
2018-09-08T04:23:20.777Z,934.10
2018-09-08T04:24:20.738Z,934.13
2018-09-08T04:25:20.686Z,934.16
2018-09-08T04:26:20.638Z,934.14
2018-09-08T04:27:20.578Z,934.19
2018-09-08T04:28:20.535Z,934.10
2018-09-08T04:29:20.534Z,934.10
2018-09-08T04:30:20.469Z,934.09
2018-09-08T04:31:20.393Z,934.07
2018-09-08T04:32:20.351Z,934.04
2018-09-08T04:33:20.296Z,934.06
2018-09-08T04:34:20.236Z,934.03
2018-09-08T04:35:20.218Z,934.03
2018-09-08T04:36:20.151Z,933.98
2018-09-08T04:37:20.111Z,934.02
2018-09-08T04:38:20.059Z,933.98
2018-09-08T04:39:20.013Z,934.04
2018-09-08T04:40:19.973Z,934.02
2018-09-08T04:41:19.918Z,933.98
2018-09-08T04:42:19.871Z,933.97
2018-09-08T04:43:19.822Z,933.97
2018-09-08T04:44:19.771Z,933.97
2018-09-08T04:45:19.726Z,933.95
2018-09-08T04:46:19.672Z,933.96
2018-09-08T04:47:19.621Z,933.93
2018-09-08T04:48:19.576Z,933.92
2018-09-08T04:49:19.639Z,933.89
2018-09-08T04:50:19.485Z,933.91
2018-09-08T04:51:19.432Z,933.89
2018-09-08T04:52:19.383Z,933.93
2018-09-08T04:53:19.337Z,933.84
2018-09-08T04:54:19.287Z,933.89
2018-09-08T04:55:19.229Z,933.90
2018-09-08T04:56:19.186Z,933.90
2018-09-08T04:57:19.150Z,933.87
2018-09-08T04:58:19.113Z,933.87
2018-09-08T04:59:19.061Z,933.87
2018-09-08T05:00:19.005Z,933.85
2018-09-08T05:01:18.959Z,933.85
2018-09-08T05:02:18.948Z,933.79
2018-09-08T05:03:18.868Z,933.78
2018-09-08T05:04:18.811Z,933.77
2018-09-08T05:05:18.749Z,933.72
2018-09-08T05:06:18.715Z,933.70
2018-09-08T05:07:18.679Z,933.76
2018-09-08T05:08:18.612Z,933.76
2018-09-08T05:09:18.565Z,933.71
2018-09-08T05:10:18.516Z,933.73
2018-09-08T05:11:18.489Z,933.70
2018-09-08T05:12:18.423Z,933.65
2018-09-08T05:13:18.365Z,933.68
2018-09-08T05:14:18.337Z,933.63
2018-09-08T05:15:18.291Z,933.67
2018-09-08T05:16:18.233Z,933.67
2018-09-08T05:17:18.262Z,933.64
2018-09-08T05:18:18.139Z,933.60
2018-09-08T05:19:18.088Z,933.64
2018-09-08T05:20:18.049Z,933.58
2018-09-08T05:21:17.989Z,933.60
2018-09-08T05:22:17.948Z,933.57
2018-09-08T05:23:17.900Z,933.60
2018-09-08T05:24:17.836Z,933.58
2018-09-08T05:25:17.806Z,933.56
2018-09-08T05:26:17.755Z,933.47
2018-09-08T05:27:17.718Z,933.44
2018-09-08T05:28:17.652Z,933.49
2018-09-08T05:29:17.607Z,933.43
2018-09-08T05:30:17.567Z,933.45
2018-09-08T05:31:17.519Z,933.46
2018-09-08T05:32:17.458Z,933.45
2018-09-08T05:33:17.419Z,933.42
2018-09-08T05:34:17.373Z,933.39
2018-09-08T05:35:17.323Z,933.39
2018-09-08T05:36:17.273Z,933.35
2018-09-08T05:37:17.223Z,933.41
2018-09-08T05:38:17.178Z,933.33
2018-09-08T05:39:17.130Z,933.33
2018-09-08T05:40:17.080Z,933.33
2018-09-08T05:41:17.026Z,933.31
2018-09-08T05:42:16.984Z,933.27
2018-09-08T05:43:16.942Z,933.30
2018-09-08T05:44:16.886Z,933.28
2018-09-08T05:45:16.833Z,933.25
2018-09-08T05:46:16.790Z,933.31
2018-09-08T05:47:16.740Z,933.29
2018-09-08T05:48:16.687Z,933.38
2018-09-08T05:49:16.646Z,933.35
2018-09-08T05:50:16.596Z,933.41
2018-09-08T05:51:16.544Z,933.34
2018-09-08T05:52:16.500Z,933.40
2018-09-08T05:53:16.451Z,933.38
2018-09-08T05:54:16.409Z,933.38
2018-09-08T05:55:16.357Z,933.39
2018-09-08T05:56:16.304Z,933.37
2018-09-08T05:57:16.257Z,933.39
2018-09-08T05:58:16.249Z,933.42
2018-09-08T05:59:16.160Z,933.37
2018-09-08T06:00:16.121Z,933.33
2018-09-08T06:01:16.057Z,933.35
2018-09-08T06:02:16.007Z,933.34
2018-09-08T06:03:15.971Z,933.38
2018-09-08T06:04:15.916Z,933.40
2018-09-08T06:05:15.881Z,933.39
2018-09-08T06:06:15.812Z,933.35
2018-09-08T06:07:15.781Z,933.36
2018-09-08T06:08:15.723Z,933.38
2018-09-08T06:09:15.670Z,933.35
2018-09-08T06:10:15.693Z,933.40
2018-09-08T06:11:15.579Z,933.42
2018-09-08T06:12:15.539Z,933.36
2018-09-08T06:13:15.492Z,933.39
2018-09-08T06:14:15.438Z,933.37
2018-09-08T06:15:15.390Z,933.42
2018-09-08T06:16:15.334Z,933.37
2018-09-08T06:17:15.308Z,933.38
2018-09-08T06:18:15.280Z,933.40
2018-09-08T06:19:15.205Z,933.40
2018-09-08T06:20:15.151Z,933.41
2018-09-08T06:21:15.080Z,933.38
2018-09-08T06:22:15.040Z,933.37
2018-09-08T06:23:14.994Z,933.40
2018-09-08T06:24:14.963Z,933.37
2018-09-08T06:25:14.909Z,933.35
2018-09-08T06:26:14.852Z,933.35
2018-09-08T06:27:14.799Z,933.35
2018-09-08T06:28:14.746Z,933.35
2018-09-08T06:29:14.702Z,933.37
2018-09-08T06:30:14.666Z,933.33
2018-09-08T06:31:14.599Z,933.34
2018-09-08T06:32:14.552Z,933.31
2018-09-08T06:33:14.555Z,933.31
2018-09-08T06:34:14.473Z,933.31
2018-09-08T06:35:14.440Z,933.29
2018-09-08T06:36:14.362Z,933.28
2018-09-08T06:37:14.316Z,933.30
2018-09-08T06:38:14.264Z,933.31
2018-09-08T06:39:14.217Z,933.30
2018-09-08T06:40:14.166Z,933.29
2018-09-08T06:41:14.108Z,933.36
2018-09-08T06:42:14.057Z,933.28
2018-09-08T06:43:14.021Z,933.32
2018-09-08T06:44:13.985Z,933.32
2018-09-08T06:45:14.028Z,933.30
2018-09-08T06:46:13.891Z,933.35
2018-09-08T06:47:13.823Z,933.35
2018-09-08T06:48:13.772Z,933.35
2018-09-08T06:49:13.729Z,933.32
2018-09-08T06:50:13.691Z,933.36
2018-09-08T06:51:13.630Z,933.32
2018-09-08T06:52:13.669Z,933.35
2018-09-08T06:53:13.519Z,933.33
2018-09-08T06:54:13.474Z,933.34
2018-09-08T06:55:13.434Z,933.36
2018-09-08T06:56:13.394Z,933.37
2018-09-08T06:57:13.364Z,933.37
2018-09-08T06:58:13.297Z,933.37
2018-09-08T06:59:13.235Z,933.40
2018-09-08T07:00:13.194Z,933.45
2018-09-08T07:01:13.148Z,933.39
2018-09-08T07:02:13.088Z,933.42
2018-09-08T07:03:13.052Z,933.40
2018-09-08T07:04:12.999Z,933.43
2018-09-08T07:05:12.956Z,933.43
2018-09-08T07:06:12.892Z,933.43
2018-09-08T07:07:12.854Z,933.45
2018-09-08T07:08:12.802Z,933.48
2018-09-08T07:09:12.748Z,933.49
2018-09-08T07:10:12.696Z,933.48
2018-09-08T07:11:12.654Z,933.53
2018-09-08T07:12:12.606Z,933.55
2018-09-08T07:13:12.543Z,933.59
2018-09-08T07:14:12.506Z,933.51
2018-09-08T07:15:12.519Z,933.51
2018-09-08T07:16:12.403Z,933.49
2018-09-08T07:17:12.367Z,933.49
2018-09-08T07:18:12.311Z,933.55
2018-09-08T07:19:12.268Z,933.58
2018-09-08T07:20:12.216Z,933.58
2018-09-08T07:21:12.164Z,933.60
2018-09-08T07:22:12.114Z,933.60
2018-09-08T07:23:12.065Z,933.61
2018-09-08T07:24:12.023Z,933.60
2018-09-08T07:25:11.972Z,933.62
2018-09-08T07:26:11.926Z,933.66
2018-09-08T07:27:11.865Z,933.67
2018-09-08T07:28:11.833Z,933.67
2018-09-08T07:29:11.768Z,933.68
2018-09-08T07:30:11.719Z,933.63
2018-09-08T07:31:11.712Z,933.67
2018-09-08T07:32:11.664Z,933.74
2018-09-08T07:33:11.562Z,933.72
2018-09-08T07:34:11.529Z,933.70
2018-09-08T07:35:11.482Z,933.71
2018-09-08T07:36:11.430Z,933.68
2018-09-08T07:37:11.403Z,933.75
2018-09-08T07:38:11.333Z,933.68
2018-09-08T07:39:11.282Z,933.72
2018-09-08T07:40:11.236Z,933.72
2018-09-08T07:41:11.184Z,933.78
2018-09-08T07:42:11.149Z,933.70
2018-09-08T07:43:11.094Z,933.77
2018-09-08T07:44:11.062Z,933.79
2018-09-08T07:45:10.994Z,933.80
2018-09-08T07:46:10.942Z,933.76
2018-09-08T07:47:10.894Z,933.80
2018-09-08T07:48:10.846Z,933.77
2018-09-08T07:49:10.795Z,933.77
2018-09-08T07:50:10.749Z,933.77
2018-09-08T07:51:10.708Z,933.75
2018-09-08T07:52:10.653Z,933.75
2018-09-08T07:53:10.661Z,933.73
2018-09-08T07:54:10.561Z,933.71
2018-09-08T07:55:10.502Z,933.76
2018-09-08T07:56:10.467Z,933.77
2018-09-08T07:57:10.400Z,933.79
2018-09-08T07:58:10.368Z,933.78
2018-09-08T07:59:10.317Z,933.80
2018-09-08T08:00:10.267Z,933.80
2018-09-08T08:01:10.211Z,933.84
2018-09-08T08:02:10.155Z,933.81
2018-09-08T08:03:10.116Z,933.87
2018-09-08T08:04:10.065Z,933.83
2018-09-08T08:05:10.018Z,933.83
2018-09-08T08:06:09.967Z,933.79
2018-09-08T08:07:09.918Z,933.82
2018-09-08T08:08:09.880Z,933.84
2018-09-08T08:09:09.819Z,933.80
2018-09-08T08:10:09.777Z,933.89
2018-09-08T08:11:09.727Z,933.90
2018-09-08T08:12:09.685Z,933.92
2018-09-08T08:13:09.643Z,933.90
2018-09-08T08:14:09.584Z,933.92
2018-09-08T08:15:09.525Z,933.91
2018-09-08T08:16:09.465Z,933.95
2018-09-08T08:17:09.435Z,933.94
2018-09-08T08:18:09.387Z,933.95
2018-09-08T08:19:09.329Z,933.98
2018-09-08T08:20:09.286Z,933.99
2018-09-08T08:21:09.239Z,934.02
2018-09-08T08:22:09.190Z,934.03
2018-09-08T08:23:09.179Z,934.06
2018-09-08T08:24:09.091Z,934.09
2018-09-08T08:25:09.042Z,934.06
2018-09-08T08:26:08.978Z,934.05
2018-09-08T08:27:08.941Z,934.05
2018-09-08T08:28:08.897Z,934.10
2018-09-08T08:29:08.845Z,934.09
2018-09-08T08:30:08.793Z,934.13
2018-09-08T08:31:08.817Z,934.10
2018-09-08T08:32:08.712Z,934.14
2018-09-08T08:33:08.662Z,934.15
2018-09-08T08:34:08.602Z,934.15
2018-09-08T08:35:08.551Z,934.17
2018-09-08T08:36:08.507Z,934.20
2018-09-08T08:37:08.501Z,934.14
2018-09-08T08:38:08.426Z,934.16
2018-09-08T08:39:08.358Z,934.19
2018-09-08T08:40:08.311Z,934.18
2018-09-08T08:41:08.242Z,934.24
2018-09-08T08:42:08.212Z,934.27
2018-09-08T08:43:08.179Z,934.31
2018-09-08T08:44:08.115Z,934.30
2018-09-08T08:45:08.069Z,934.27
2018-09-08T08:46:08.005Z,934.32
2018-09-08T08:47:07.979Z,934.39
2018-09-08T08:48:07.937Z,934.38
2018-09-08T08:49:07.873Z,934.39
2018-09-08T08:50:07.818Z,934.38
2018-09-08T08:51:07.768Z,934.40
2018-09-08T08:52:07.721Z,934.42
2018-09-08T08:53:07.672Z,934.44
2018-09-08T08:54:07.610Z,934.39
2018-09-08T08:55:07.573Z,934.40
2018-09-08T08:56:07.526Z,934.46
2018-09-08T08:57:07.489Z,934.42
2018-09-08T08:58:07.428Z,934.52
2018-09-08T08:59:07.369Z,934.52
2018-09-08T09:00:07.342Z,934.50
2018-09-08T09:01:07.281Z,934.54
2018-09-08T09:02:07.240Z,934.59
2018-09-08T09:03:07.184Z,934.55
2018-09-08T09:04:07.135Z,934.62
2018-09-08T09:05:07.103Z,934.53
2018-09-08T09:06:07.038Z,934.58
2018-09-08T09:07:06.997Z,934.64
2018-09-08T09:08:06.940Z,934.63
2018-09-08T09:09:06.900Z,934.66
2018-09-08T09:10:06.851Z,934.71
2018-09-08T09:11:06.800Z,934.67
2018-09-08T09:12:06.754Z,934.70
2018-09-08T09:13:06.872Z,934.71
2018-09-08T09:14:06.653Z,934.74
2018-09-08T09:15:07.115Z,934.78
2018-09-08T09:16:06.553Z,934.75
2018-09-08T09:17:06.508Z,934.80
2018-09-08T09:18:06.459Z,934.78
2018-09-08T09:19:06.407Z,934.78
2018-09-08T09:20:06.347Z,934.80
2018-09-08T09:21:06.305Z,934.82
2018-09-08T09:22:06.262Z,934.79
2018-09-08T09:23:06.577Z,934.82
2018-09-08T09:24:06.239Z,934.80
2018-09-08T09:25:06.214Z,934.86
2018-09-08T09:26:06.065Z,934.86
2018-09-08T09:27:06.013Z,934.89
2018-09-08T09:28:05.974Z,934.92
2018-09-08T09:29:05.928Z,934.93
2018-09-08T09:30:05.873Z,934.94
2018-09-08T09:31:05.834Z,934.96
2018-09-08T09:32:05.755Z,934.94
2018-09-08T09:33:05.734Z,934.95
2018-09-08T09:34:05.677Z,934.95
2018-09-08T09:35:05.623Z,934.99
2018-09-08T09:36:05.595Z,934.99
2018-09-08T09:37:05.534Z,934.96
2018-09-08T09:38:05.481Z,934.98
2018-09-08T09:39:05.432Z,934.97
2018-09-08T09:40:05.388Z,934.99
2018-09-08T09:41:05.328Z,934.99
2018-09-08T09:42:05.281Z,935.06
2018-09-08T09:43:05.244Z,935.10
2018-09-08T09:44:05.201Z,935.11
2018-09-08T09:45:05.140Z,935.11
2018-09-08T09:46:05.093Z,935.19
2018-09-08T09:47:05.044Z,935.15
2018-09-08T09:48:05.000Z,935.16
2018-09-08T09:49:04.944Z,935.19
2018-09-08T09:50:04.889Z,935.17
2018-09-08T09:51:04.860Z,935.21
2018-09-08T09:52:04.796Z,935.20
2018-09-08T09:53:04.800Z,935.21
2018-09-08T09:54:04.694Z,935.20
2018-09-08T09:55:04.651Z,935.25
2018-09-08T09:56:04.603Z,935.33
2018-09-08T09:57:04.565Z,935.34
2018-09-08T09:58:04.508Z,935.31
2018-09-08T09:59:04.458Z,935.32
2018-09-08T10:00:04.413Z,935.27
2018-09-08T10:01:04.390Z,935.30
2018-09-08T10:02:04.297Z,935.34
2018-09-08T10:03:04.276Z,935.37
2018-09-08T10:04:04.217Z,935.43
2018-09-08T10:05:04.167Z,935.44
2018-09-08T10:06:04.119Z,935.47
2018-09-08T10:07:04.071Z,935.47
2018-09-08T10:08:04.023Z,935.44
2018-09-08T10:09:03.975Z,935.47
2018-09-08T10:10:03.910Z,935.48
2018-09-08T10:11:03.878Z,935.52
2018-09-08T10:12:03.851Z,935.57
2018-09-08T10:13:03.775Z,935.59
2018-09-08T10:14:03.732Z,935.68
2018-09-08T10:15:03.679Z,935.66
2018-09-08T10:16:03.646Z,935.70
2018-09-08T10:17:03.584Z,935.67
2018-09-08T10:18:03.543Z,935.75
2018-09-08T10:19:03.494Z,935.85
2018-09-08T10:20:03.447Z,935.76
2018-09-08T10:21:03.402Z,935.78
2018-09-08T10:22:03.353Z,935.79
2018-09-08T10:23:03.350Z,935.81
2018-09-08T10:24:05.152Z,935.79
2018-09-08T10:25:03.199Z,935.94
2018-09-08T10:26:03.164Z,936.27
2018-09-08T10:27:03.125Z,936.33
2018-09-08T10:28:03.073Z,936.34
2018-09-08T10:29:03.026Z,936.39
2018-09-08T10:30:03.542Z,936.37
2018-09-08T10:31:02.933Z,936.32
2018-09-08T10:32:02.888Z,936.34
2018-09-08T10:33:02.845Z,936.37
2018-09-08T10:34:02.803Z,936.35
2018-09-08T10:35:02.758Z,936.38
2018-09-08T10:36:02.729Z,936.38
2018-09-08T10:37:02.679Z,936.40
2018-09-08T10:38:02.641Z,936.42
2018-09-08T10:39:02.595Z,936.42
2018-09-08T10:40:02.547Z,936.46
2018-09-08T10:41:02.504Z,936.43
2018-09-08T10:42:02.472Z,936.38
2018-09-08T10:43:02.425Z,936.48
2018-09-08T10:44:02.378Z,936.45
2018-09-08T10:45:02.347Z,936.47
2018-09-08T10:46:02.361Z,936.47
2018-09-08T10:47:02.253Z,936.38
2018-09-08T10:48:02.219Z,936.32
2018-09-08T10:49:02.181Z,936.32
2018-09-08T10:50:02.137Z,936.51
2018-09-08T10:51:02.171Z,936.31
2018-09-08T10:52:02.054Z,936.15
2018-09-08T10:53:02.017Z,935.99
2018-09-08T10:54:01.973Z,935.90
2018-09-08T10:55:01.930Z,935.90
2018-09-08T10:56:01.882Z,935.98
2018-09-08T10:57:01.845Z,935.96
2018-09-08T10:58:01.799Z,935.90
2018-09-08T10:59:01.771Z,935.91
2018-09-08T11:00:01.815Z,935.92
2018-09-08T11:01:01.676Z,935.87
2018-09-08T11:02:01.760Z,935.88
2018-09-08T11:03:01.573Z,935.91
2018-09-08T11:04:01.552Z,935.87
2018-09-08T11:05:01.483Z,935.89
2018-09-08T11:06:01.452Z,935.91
2018-09-08T11:07:01.402Z,935.89
2018-09-08T11:08:01.349Z,935.90
2018-09-08T11:09:01.317Z,935.91
2018-09-08T11:10:01.272Z,935.96
2018-09-08T11:11:01.221Z,935.98
2018-09-08T11:12:01.176Z,935.97
2018-09-08T11:13:01.137Z,935.99
2018-09-08T11:14:01.092Z,936.01
2018-09-08T11:15:01.054Z,935.99
2018-09-08T11:16:01.005Z,936.03
2018-09-08T11:17:00.949Z,936.00
2018-09-08T11:18:00.909Z,936.03
2018-09-08T11:19:00.867Z,936.04
2018-09-08T11:20:00.818Z,936.05
2018-09-08T11:21:00.774Z,936.11
2018-09-08T11:22:00.724Z,936.05
2018-09-08T11:23:00.680Z,936.07
2018-09-08T11:24:00.636Z,936.07
2018-09-08T11:25:00.590Z,936.08
2018-09-08T11:26:00.543Z,936.07
2018-09-08T11:27:00.497Z,936.07
2018-09-08T11:28:00.454Z,936.12
2018-09-08T11:29:00.401Z,936.10
2018-09-08T11:30:00.369Z,936.08
2018-09-08T11:31:00.313Z,936.13
2018-09-08T11:32:00.265Z,936.13
2018-09-08T11:33:00.219Z,936.17
2018-09-08T11:34:00.180Z,936.14
2018-09-08T11:35:00.112Z,936.14
2018-09-08T11:36:00.097Z,936.08
2018-09-08T11:37:00.042Z,936.13
2018-09-08T11:38:00.026Z,936.17
2018-09-08T11:38:59.948Z,936.13
2018-09-08T11:39:59.902Z,936.15
2018-09-08T11:40:59.854Z,936.12
2018-09-08T11:41:59.816Z,936.12
2018-09-08T11:42:59.770Z,936.14
2018-09-08T11:43:59.718Z,936.10
2018-09-08T11:44:59.770Z,936.09
2018-09-08T11:45:59.635Z,936.10
2018-09-08T11:46:59.577Z,936.09
2018-09-08T11:47:59.517Z,936.13
2018-09-08T11:48:59.496Z,936.04
2018-09-08T11:49:59.447Z,936.04
2018-09-08T11:50:59.389Z,936.02
2018-09-08T11:51:59.348Z,936.06
2018-09-08T11:52:59.324Z,936.03
2018-09-08T11:53:59.253Z,935.99
2018-09-08T11:54:59.227Z,936.11
2018-09-08T11:55:59.164Z,936.13
2018-09-08T11:56:59.113Z,936.10
2018-09-08T11:57:59.073Z,936.10
2018-09-08T11:58:59.026Z,936.08
2018-09-08T11:59:58.986Z,936.10
2018-09-08T12:00:58.946Z,936.09
2018-09-08T12:01:58.871Z,936.07
2018-09-08T12:02:58.877Z,936.11
2018-09-08T12:03:58.819Z,936.09
2018-09-08T12:04:58.732Z,936.06
2018-09-08T12:05:58.695Z,936.11
2018-09-08T12:06:58.658Z,936.10
2018-09-08T12:07:58.669Z,936.21
2018-09-08T12:08:58.565Z,936.15
2018-09-08T12:09:58.513Z,936.12
2018-09-08T12:10:58.472Z,936.15
2018-09-08T12:11:58.422Z,936.14
2018-09-08T12:12:58.388Z,936.17
2018-09-08T12:13:58.379Z,936.17
2018-09-08T12:14:58.301Z,936.17
2018-09-08T12:15:58.246Z,936.16
2018-09-08T12:16:58.206Z,936.16
2018-09-08T12:17:58.157Z,936.17
2018-09-08T12:18:58.145Z,936.14
2018-09-08T12:19:58.062Z,936.13
2018-09-08T12:20:58.008Z,936.17
2018-09-08T12:21:57.965Z,936.06
2018-09-08T12:22:57.926Z,936.13
2018-09-08T12:23:57.881Z,936.10
2018-09-08T12:24:57.835Z,936.12
2018-09-08T12:25:57.785Z,936.14
2018-09-08T12:26:57.743Z,936.14
2018-09-08T12:27:57.704Z,936.13